EAG59 OBBI-OEJN
Flight info
| Callsign | EAG59 |
|---|---|
| Flight time | 1h 46m |
| Altitude | 40000 |
| Route | BHR B457 NARMI N112 GETOT Q212 KSA G782 VEMEM |
| Aircraft | B744/H-SDE3FGHIM1M2RWXY/LB1 |
Departure
| Time | 2026-04-29 22:29 |
|---|---|
| Airport | Bahrain International Airport (OBBI) |
Arrival
| Time | 2026-04-30 00:15 |
|---|---|
| Airport | King Abdulaziz International Airport (OEJN) |
| Time | Latitude | Longitude | Altitude | Speed | Heading |
|---|---|---|---|---|---|
| 2026-04-29 22:01 | 26.27413 | 50.62077 | 19 ft | 0 kts | 213° |
| 2026-04-29 22:17 | 26.27417 | 50.62080 | 19 ft | 3 kts | 212° |
| 2026-04-29 22:18 | 26.27440 | 50.62095 | 19 ft | 4 kts | 203° |
| 2026-04-29 22:18 | 26.27465 | 50.62105 | 19 ft | 4 kts | 188° |
| 2026-04-29 22:18 | 26.27489 | 50.62105 | 19 ft | 4 kts | 160° |
| 2026-04-29 22:18 | 26.27505 | 50.62095 | 19 ft | 1 kts | 123° |
| 2026-04-29 22:19 | 26.27506 | 50.62094 | 19 ft | 0 kts | 122° |
| 2026-04-29 22:22 | 26.27494 | 50.62115 | 19 ft | 8 kts | 120° |
| 2026-04-29 22:22 | 26.27512 | 50.62200 | 19 ft | 16 kts | 64° |
| 2026-04-29 22:23 | 26.27507 | 50.62290 | 19 ft | 20 kts | 130° |
| 2026-04-29 22:23 | 26.27423 | 50.62446 | 19 ft | 29 kts | 119° |
| 2026-04-29 22:23 | 26.27314 | 50.62643 | 19 ft | 29 kts | 121° |
| 2026-04-29 22:23 | 26.27213 | 50.62821 | 19 ft | 26 kts | 124° |
| 2026-04-29 22:24 | 26.27112 | 50.62972 | 19 ft | 23 kts | 126° |
| 2026-04-29 22:24 | 26.27017 | 50.63136 | 19 ft | 29 kts | 123° |
| 2026-04-29 22:24 | 26.26892 | 50.63354 | 19 ft | 38 kts | 122° |
| 2026-04-29 22:24 | 26.26734 | 50.63627 | 19 ft | 46 kts | 122° |
| 2026-04-29 22:25 | 26.26555 | 50.63950 | 19 ft | 52 kts | 122° |
| 2026-04-29 22:25 | 26.26351 | 50.64303 | 19 ft | 53 kts | 121° |
| 2026-04-29 22:25 | 26.26171 | 50.64622 | 19 ft | 45 kts | 124° |
| 2026-04-29 22:25 | 26.26029 | 50.64860 | 19 ft | 24 kts | 108° |
| 2026-04-29 22:26 | 26.26028 | 50.64951 | 19 ft | 0 kts | 26° |
| 2026-04-29 22:27 | 26.26029 | 50.64951 | 19 ft | 0 kts | 26° |
| 2026-04-29 22:27 | 26.26056 | 50.64969 | 19 ft | 12 kts | 31° |
| 2026-04-29 22:27 | 26.26134 | 50.65015 | 19 ft | 13 kts | 3° |
| 2026-04-29 22:27 | 26.26176 | 50.64942 | 19 ft | 12 kts | 302° |
| 2026-04-29 22:28 | 26.26223 | 50.64863 | 19 ft | 12 kts | 303° |
| 2026-04-29 22:28 | 26.26336 | 50.64675 | 19 ft | 59 kts | 302° |
| 2026-04-29 22:28 | 26.26697 | 50.64043 | 20 ft | 133 kts | 302° |
| 2026-04-29 22:28 | 26.27297 | 50.62994 | 111 ft | 182 kts | 304° |
| 2026-04-29 22:29 | 26.28023 | 50.61745 | 655 ft | 199 kts | 304° |
| 2026-04-29 22:29 | 26.28710 | 50.60406 | 1623 ft | 196 kts | 298° |
| 2026-04-29 22:29 | 26.28918 | 50.58807 | 2024 ft | 228 kts | 270° |
| 2026-04-29 22:29 | 26.28801 | 50.56940 | 2327 ft | 252 kts | 273° |
| 2026-04-29 22:30 | 26.28894 | 50.54964 | 3128 ft | 253 kts | 277° |
| 2026-04-29 22:30 | 26.29066 | 50.53032 | 4331 ft | 246 kts | 278° |
| 2026-04-29 22:30 | 26.29220 | 50.51170 | 5639 ft | 237 kts | 277° |
| 2026-04-29 22:30 | 26.29344 | 50.49325 | 6605 ft | 242 kts | 274° |
| 2026-04-29 22:31 | 26.29445 | 50.47437 | 7487 ft | 246 kts | 272° |
| 2026-04-29 22:31 | 26.29532 | 50.45508 | 8380 ft | 251 kts | 271° |
| 2026-04-29 22:31 | 26.29614 | 50.43578 | 9259 ft | 255 kts | 271° |
| 2026-04-29 22:31 | 26.29697 | 50.41587 | 10127 ft | 260 kts | 271° |
| 2026-04-29 22:32 | 26.29784 | 50.39506 | 10655 ft | 279 kts | 271° |
| 2026-04-29 22:32 | 26.29880 | 50.37229 | 10898 ft | 308 kts | 271° |
| 2026-04-29 22:32 | 26.29981 | 50.34750 | 11146 ft | 334 kts | 271° |
| 2026-04-29 22:32 | 26.30149 | 50.32062 | 11368 ft | 361 kts | 274° |
| 2026-04-29 22:33 | 26.30495 | 50.29222 | 11615 ft | 384 kts | 277° |
| 2026-04-29 22:33 | 26.30963 | 50.26223 | 12327 ft | 390 kts | 278° |
| 2026-04-29 22:33 | 26.31418 | 50.23247 | 13478 ft | 388 kts | 277° |
| 2026-04-29 22:33 | 26.31837 | 50.20274 | 14461 ft | 391 kts | 277° |
| 2026-04-29 22:34 | 26.32204 | 50.17245 | 15351 ft | 396 kts | 274° |
| 2026-04-29 22:34 | 26.32324 | 50.14177 | 16342 ft | 399 kts | 270° |
| 2026-04-29 22:34 | 26.32301 | 50.11069 | 17327 ft | 400 kts | 268° |
| 2026-04-29 22:34 | 26.32206 | 50.07980 | 18464 ft | 399 kts | 267° |
| 2026-04-29 22:35 | 26.32097 | 50.04917 | 19282 ft | 403 kts | 267° |
| 2026-04-29 22:35 | 26.32004 | 50.01765 | 19983 ft | 411 kts | 268° |
| 2026-04-29 22:35 | 26.31917 | 49.98538 | 20595 ft | 419 kts | 268° |
| 2026-04-29 22:35 | 26.31836 | 49.95285 | 21378 ft | 421 kts | 268° |
| 2026-04-29 22:36 | 26.31756 | 49.92006 | 22183 ft | 423 kts | 268° |
| 2026-04-29 22:36 | 26.31678 | 49.88722 | 22972 ft | 425 kts | 268° |
| 2026-04-29 22:36 | 26.31602 | 49.85409 | 23565 ft | 430 kts | 266° |
| 2026-04-29 22:36 | 26.31523 | 49.82073 | 24218 ft | 432 kts | 266° |
| 2026-04-29 22:37 | 26.31469 | 49.78712 | 24882 ft | 434 kts | 266° |
| 2026-04-29 22:37 | 26.31410 | 49.75333 | 25319 ft | 439 kts | 266° |
| 2026-04-29 22:37 | 26.31336 | 49.71906 | 25725 ft | 444 kts | 266° |
| 2026-04-29 22:37 | 26.31254 | 49.68453 | 26116 ft | 449 kts | 266° |
| 2026-04-29 22:38 | 26.31167 | 49.65003 | 26567 ft | 451 kts | 267° |
| 2026-04-29 22:38 | 26.31079 | 49.61457 | 27074 ft | 452 kts | 267° |
| 2026-04-29 22:38 | 26.30991 | 49.58003 | 27628 ft | 452 kts | 267° |
| 2026-04-29 22:38 | 26.30902 | 49.54504 | 28153 ft | 452 kts | 267° |
| 2026-04-29 22:39 | 26.30812 | 49.50985 | 28685 ft | 452 kts | 267° |
| 2026-04-29 22:39 | 26.30722 | 49.47479 | 29201 ft | 452 kts | 267° |
| 2026-04-29 22:39 | 26.30635 | 49.43978 | 29682 ft | 453 kts | 267° |
| 2026-04-29 22:39 | 26.30558 | 49.40457 | 30179 ft | 454 kts | 267° |
| 2026-04-29 22:40 | 26.30471 | 49.36925 | 30632 ft | 456 kts | 267° |
| 2026-04-29 22:40 | 26.30377 | 49.33396 | 31150 ft | 455 kts | 267° |
| 2026-04-29 22:40 | 26.30281 | 49.29871 | 31685 ft | 455 kts | 267° |
| 2026-04-29 22:40 | 26.30185 | 49.26338 | 32096 ft | 456 kts | 266° |
| 2026-04-29 22:41 | 26.30084 | 49.22792 | 32357 ft | 460 kts | 265° |
| 2026-04-29 22:41 | 26.29983 | 49.19234 | 32816 ft | 458 kts | 265° |
| 2026-04-29 22:41 | 26.29882 | 49.15674 | 33181 ft | 459 kts | 265° |
| 2026-04-29 22:41 | 26.29782 | 49.12112 | 33530 ft | 460 kts | 265° |
| 2026-04-29 22:42 | 26.29665 | 49.08600 | 33851 ft | 461 kts | 264° |
| 2026-04-29 22:42 | 26.29426 | 49.05037 | 34201 ft | 462 kts | 262° |
| 2026-04-29 22:42 | 26.29119 | 49.01465 | 34516 ft | 463 kts | 262° |
| 2026-04-29 22:42 | 26.28816 | 48.97891 | 34860 ft | 464 kts | 263° |
| 2026-04-29 22:43 | 26.28520 | 48.94262 | 35234 ft | 465 kts | 263° |
| 2026-04-29 22:43 | 26.28237 | 48.90712 | 35548 ft | 466 kts | 263° |
| 2026-04-29 22:43 | 26.27953 | 48.87114 | 35874 ft | 467 kts | 263° |
| 2026-04-29 22:43 | 26.27692 | 48.83496 | 36191 ft | 468 kts | 264° |
| 2026-04-29 22:44 | 26.27425 | 48.79881 | 36512 ft | 468 kts | 263° |
| 2026-04-29 22:44 | 26.27147 | 48.76259 | 36800 ft | 469 kts | 263° |
| 2026-04-29 22:44 | 26.26862 | 48.72636 | 37131 ft | 469 kts | 263° |
| 2026-04-29 22:44 | 26.26574 | 48.69012 | 37397 ft | 470 kts | 263° |
| 2026-04-29 22:45 | 26.26284 | 48.65384 | 37673 ft | 471 kts | 263° |
| 2026-04-29 22:45 | 26.25993 | 48.61739 | 37936 ft | 472 kts | 263° |
| 2026-04-29 22:45 | 26.25701 | 48.58103 | 38204 ft | 473 kts | 263° |
| 2026-04-29 22:45 | 26.25408 | 48.54451 | 38462 ft | 473 kts | 263° |
| 2026-04-29 22:46 | 26.24805 | 48.50862 | 38699 ft | 471 kts | 253° |
| 2026-04-29 22:46 | 26.23773 | 48.47402 | 38902 ft | 472 kts | 249° |
| 2026-04-29 22:46 | 26.22532 | 48.44005 | 39144 ft | 472 kts | 246° |
| 2026-04-29 22:46 | 26.21153 | 48.40683 | 39363 ft | 473 kts | 244° |
| 2026-04-29 22:47 | 26.19711 | 48.37370 | 39574 ft | 473 kts | 244° |
| 2026-04-29 22:47 | 26.18293 | 48.34052 | 39774 ft | 474 kts | 244° |
| 2026-04-29 22:47 | 26.16892 | 48.30733 | 39882 ft | 474 kts | 245° |
| 2026-04-29 22:48 | 26.14109 | 48.24108 | 39894 ft | 475 kts | 245° |
| 2026-04-29 22:48 | 26.11155 | 48.17545 | 39897 ft | 474 kts | 238° |
| 2026-04-29 22:49 | 26.07223 | 48.11657 | 39897 ft | 475 kts | 231° |
| 2026-04-29 22:49 | 26.02946 | 48.06043 | 39879 ft | 475 kts | 230° |
| 2026-04-29 22:50 | 25.98719 | 48.00404 | 39857 ft | 474 kts | 231° |
| 2026-04-29 22:50 | 25.94507 | 47.94760 | 39856 ft | 475 kts | 231° |
| 2026-04-29 22:51 | 25.90284 | 47.89099 | 39856 ft | 476 kts | 230° |
| 2026-04-29 22:51 | 25.83996 | 47.80665 | 39912 ft | 471 kts | 231° |
| 2026-04-29 22:52 | 25.79843 | 47.75101 | 39916 ft | 470 kts | 230° |
| 2026-04-29 22:52 | 25.75658 | 47.69513 | 39917 ft | 471 kts | 230° |
| 2026-04-29 22:53 | 25.71478 | 47.63938 | 39919 ft | 471 kts | 230° |
| 2026-04-29 22:53 | 25.67293 | 47.58338 | 39920 ft | 470 kts | 231° |
| 2026-04-29 22:54 | 25.63140 | 47.52794 | 39923 ft | 470 kts | 231° |
| 2026-04-29 22:54 | 25.58954 | 47.47220 | 39924 ft | 470 kts | 230° |
| 2026-04-29 22:55 | 25.54756 | 47.41657 | 39928 ft | 470 kts | 231° |
| 2026-04-29 22:55 | 25.50559 | 47.36100 | 39930 ft | 470 kts | 231° |
| 2026-04-29 22:56 | 25.46364 | 47.30550 | 39934 ft | 470 kts | 231° |
| 2026-04-29 22:56 | 25.42167 | 47.25004 | 39935 ft | 470 kts | 231° |
| 2026-04-29 22:57 | 25.37979 | 47.19450 | 39937 ft | 470 kts | 231° |
| 2026-04-29 22:57 | 25.33791 | 47.13892 | 39939 ft | 470 kts | 231° |
| 2026-04-29 22:58 | 25.29620 | 47.08381 | 39943 ft | 469 kts | 231° |
| 2026-04-29 22:58 | 25.25410 | 47.02830 | 39946 ft | 469 kts | 231° |
| 2026-04-29 22:59 | 25.21221 | 46.97313 | 39951 ft | 469 kts | 231° |
| 2026-04-29 22:59 | 25.17063 | 46.91825 | 39954 ft | 468 kts | 231° |
| 2026-04-29 23:00 | 25.12878 | 46.86317 | 39960 ft | 467 kts | 230° |
| 2026-04-29 23:00 | 25.08688 | 46.80828 | 39970 ft | 466 kts | 230° |
| 2026-04-29 23:01 | 25.04505 | 46.75357 | 39975 ft | 466 kts | 230° |
| 2026-04-29 23:01 | 25.00331 | 46.69899 | 39984 ft | 465 kts | 230° |
| 2026-04-29 23:02 | 24.96391 | 46.64254 | 39986 ft | 465 kts | 235° |
| 2026-04-29 23:02 | 24.92924 | 46.58285 | 39986 ft | 465 kts | 237° |
| 2026-04-29 23:03 | 24.89466 | 46.52259 | 39986 ft | 465 kts | 237° |
| 2026-04-29 23:03 | 24.85975 | 46.46254 | 39988 ft | 465 kts | 237° |
| 2026-04-29 23:04 | 24.82473 | 46.40261 | 39989 ft | 465 kts | 237° |
| 2026-04-29 23:04 | 24.78962 | 46.34258 | 39988 ft | 465 kts | 237° |
| 2026-04-29 23:05 | 24.76065 | 46.29269 | 39989 ft | 465 kts | 237° |
| 2026-04-29 23:05 | 24.72565 | 46.23278 | 39990 ft | 465 kts | 237° |
| 2026-04-29 23:06 | 24.69059 | 46.17298 | 39990 ft | 465 kts | 236° |
| 2026-04-29 23:06 | 24.65550 | 46.11322 | 39989 ft | 465 kts | 236° |
| 2026-04-29 23:07 | 24.62041 | 46.05340 | 39989 ft | 465 kts | 237° |
| 2026-04-29 23:07 | 24.58558 | 45.99403 | 39990 ft | 465 kts | 236° |
| 2026-04-29 23:08 | 24.55035 | 45.93434 | 39990 ft | 465 kts | 236° |
| 2026-04-29 23:08 | 24.51511 | 45.87475 | 39990 ft | 465 kts | 236° |
| 2026-04-29 23:09 | 24.47985 | 45.81519 | 39990 ft | 465 kts | 236° |
| 2026-04-29 23:09 | 24.44583 | 45.75485 | 39991 ft | 465 kts | 240° |
| 2026-04-29 23:10 | 24.41721 | 45.69158 | 39991 ft | 465 kts | 243° |
| 2026-04-29 23:10 | 24.38932 | 45.62747 | 39991 ft | 466 kts | 243° |
| 2026-04-29 23:11 | 24.36101 | 45.56360 | 39991 ft | 465 kts | 243° |
| 2026-04-29 23:11 | 24.33257 | 45.49981 | 39991 ft | 465 kts | 243° |
| 2026-04-29 23:12 | 24.30414 | 45.43610 | 39992 ft | 465 kts | 243° |
| 2026-04-29 23:12 | 24.27598 | 45.37214 | 39992 ft | 465 kts | 243° |
| 2026-04-29 23:13 | 24.24747 | 45.30840 | 39992 ft | 465 kts | 243° |
| 2026-04-29 23:13 | 24.21907 | 45.24517 | 39992 ft | 465 kts | 243° |
| 2026-04-29 23:14 | 24.19032 | 45.18123 | 39992 ft | 465 kts | 243° |
| 2026-04-29 23:14 | 24.16176 | 45.11771 | 39993 ft | 465 kts | 243° |
| 2026-04-29 23:15 | 24.13330 | 45.05466 | 39993 ft | 465 kts | 242° |
| 2026-04-29 23:15 | 24.10461 | 44.99121 | 39994 ft | 465 kts | 242° |
| 2026-04-29 23:16 | 24.07593 | 44.92784 | 39993 ft | 464 kts | 242° |
| 2026-04-29 23:16 | 24.04752 | 44.86436 | 39993 ft | 464 kts | 243° |
| 2026-04-29 23:17 | 24.01885 | 44.80091 | 39994 ft | 464 kts | 242° |
| 2026-04-29 23:17 | 23.99009 | 44.73762 | 39994 ft | 464 kts | 242° |
| 2026-04-29 23:18 | 23.96127 | 44.67427 | 39994 ft | 464 kts | 242° |
| 2026-04-29 23:18 | 23.93297 | 44.61133 | 39990 ft | 464 kts | 245° |
| 2026-04-29 23:19 | 23.91337 | 44.54384 | 39994 ft | 466 kts | 254° |
| 2026-04-29 23:19 | 23.89912 | 44.47451 | 39994 ft | 467 kts | 255° |
| 2026-04-29 23:20 | 23.88489 | 44.40569 | 39994 ft | 468 kts | 255° |
| 2026-04-29 23:20 | 23.87015 | 44.33643 | 39994 ft | 467 kts | 255° |
| 2026-04-29 23:21 | 23.85531 | 44.26730 | 39994 ft | 467 kts | 255° |
| 2026-04-29 23:21 | 23.84069 | 44.19792 | 39994 ft | 467 kts | 255° |
| 2026-04-29 23:22 | 23.82598 | 44.12868 | 39992 ft | 467 kts | 255° |
| 2026-04-29 23:22 | 23.81116 | 44.06017 | 39992 ft | 466 kts | 255° |
| 2026-04-29 23:23 | 23.79623 | 43.99139 | 39992 ft | 466 kts | 255° |
| 2026-04-29 23:23 | 23.78125 | 43.92249 | 39992 ft | 466 kts | 255° |
| 2026-04-29 23:24 | 23.76624 | 43.85371 | 39991 ft | 466 kts | 255° |
| 2026-04-29 23:24 | 23.75106 | 43.78486 | 39991 ft | 466 kts | 255° |
| 2026-04-29 23:25 | 23.73594 | 43.71644 | 39991 ft | 466 kts | 255° |
| 2026-04-29 23:25 | 23.72074 | 43.64781 | 39990 ft | 466 kts | 254° |
| 2026-04-29 23:26 | 23.70548 | 43.57907 | 39990 ft | 465 kts | 255° |
| 2026-04-29 23:26 | 23.69029 | 43.51040 | 39989 ft | 465 kts | 255° |
| 2026-04-29 23:27 | 23.67529 | 43.44169 | 39989 ft | 465 kts | 255° |
| 2026-04-29 23:27 | 23.66011 | 43.37302 | 39989 ft | 465 kts | 255° |
| 2026-04-29 23:28 | 23.64497 | 43.30495 | 39988 ft | 465 kts | 255° |
| 2026-04-29 23:28 | 23.62969 | 43.23641 | 39987 ft | 465 kts | 254° |
| 2026-04-29 23:29 | 23.61437 | 43.16790 | 39986 ft | 465 kts | 254° |
| 2026-04-29 23:29 | 23.59902 | 43.09938 | 39985 ft | 465 kts | 254° |
| 2026-04-29 23:30 | 23.58383 | 43.03083 | 39985 ft | 465 kts | 254° |
| 2026-04-29 23:30 | 23.56850 | 42.96282 | 39984 ft | 464 kts | 254° |
| 2026-04-29 23:31 | 23.55302 | 42.89451 | 39984 ft | 464 kts | 254° |
| 2026-04-29 23:31 | 23.53749 | 42.82605 | 39982 ft | 464 kts | 254° |
| 2026-04-29 23:32 | 23.52200 | 42.75784 | 39981 ft | 464 kts | 254° |
| 2026-04-29 23:32 | 23.50643 | 42.68943 | 39979 ft | 464 kts | 254° |
| 2026-04-29 23:33 | 23.49086 | 42.62130 | 39972 ft | 463 kts | 254° |
| 2026-04-29 23:33 | 23.47533 | 42.55354 | 39967 ft | 462 kts | 254° |
| 2026-04-29 23:34 | 23.45973 | 42.48559 | 39964 ft | 462 kts | 254° |
| 2026-04-29 23:34 | 23.44412 | 42.41772 | 39962 ft | 462 kts | 254° |
| 2026-04-29 23:35 | 23.42870 | 42.34987 | 39959 ft | 461 kts | 254° |
| 2026-04-29 23:35 | 23.41334 | 42.28240 | 39959 ft | 461 kts | 254° |
| 2026-04-29 23:36 | 23.39779 | 42.21471 | 39958 ft | 461 kts | 254° |
| 2026-04-29 23:36 | 23.38212 | 42.14678 | 39956 ft | 461 kts | 254° |
| 2026-04-29 23:37 | 23.36647 | 42.07908 | 39956 ft | 461 kts | 254° |
| 2026-04-29 23:37 | 23.35096 | 42.01134 | 39955 ft | 461 kts | 254° |
| 2026-04-29 23:38 | 23.33527 | 41.94374 | 39954 ft | 461 kts | 254° |
| 2026-04-29 23:38 | 23.31959 | 41.87662 | 39952 ft | 460 kts | 254° |
| 2026-04-29 23:39 | 23.30378 | 41.80911 | 39949 ft | 460 kts | 253° |
| 2026-04-29 23:39 | 23.28764 | 41.74179 | 39937 ft | 459 kts | 249° |
| 2026-04-29 23:40 | 23.25987 | 41.67961 | 39935 ft | 457 kts | 239° |
| 2026-04-29 23:40 | 23.22581 | 41.62133 | 39935 ft | 456 kts | 236° |
| 2026-04-29 23:41 | 23.19117 | 41.56410 | 39935 ft | 455 kts | 237° |
| 2026-04-29 23:41 | 23.15649 | 41.50599 | 39935 ft | 456 kts | 237° |
| 2026-04-29 23:42 | 23.12234 | 41.44856 | 39935 ft | 456 kts | 237° |
| 2026-04-29 23:42 | 23.08797 | 41.39056 | 39935 ft | 456 kts | 237° |
| 2026-04-29 23:43 | 23.05377 | 41.33263 | 39935 ft | 456 kts | 237° |
| 2026-04-29 23:43 | 23.01958 | 41.27480 | 39935 ft | 456 kts | 237° |
| 2026-04-29 23:44 | 22.98521 | 41.21688 | 39935 ft | 456 kts | 237° |
| 2026-04-29 23:44 | 22.95079 | 41.15918 | 39935 ft | 456 kts | 237° |
| 2026-04-29 23:45 | 22.91626 | 41.10138 | 39935 ft | 456 kts | 237° |
| 2026-04-29 23:45 | 22.88174 | 41.04363 | 39935 ft | 456 kts | 237° |
| 2026-04-29 23:46 | 22.84729 | 40.98599 | 39935 ft | 455 kts | 237° |
| 2026-04-29 23:46 | 22.81273 | 40.92843 | 39935 ft | 456 kts | 237° |
| 2026-04-29 23:47 | 22.77836 | 40.87127 | 39976 ft | 458 kts | 237° |
| 2026-04-29 23:47 | 22.74328 | 40.81296 | 40017 ft | 464 kts | 237° |
| 2026-04-29 23:48 | 22.70798 | 40.75434 | 40011 ft | 464 kts | 237° |
| 2026-04-29 23:48 | 22.67274 | 40.69589 | 40010 ft | 463 kts | 237° |
| 2026-04-29 23:49 | 22.63771 | 40.63733 | 40019 ft | 463 kts | 237° |
| 2026-04-29 23:49 | 22.60247 | 40.57872 | 40020 ft | 464 kts | 237° |
| 2026-04-29 23:50 | 22.56743 | 40.52059 | 40009 ft | 463 kts | 237° |
| 2026-04-29 23:51 | 22.51460 | 40.43317 | 39979 ft | 462 kts | 237° |
| 2026-04-29 23:51 | 22.49705 | 40.40414 | 39416 ft | 460 kts | 237° |
| 2026-04-29 23:51 | 22.47946 | 40.37520 | 38569 ft | 460 kts | 235° |
| 2026-04-29 23:51 | 22.46569 | 40.35721 | 37878 ft | 463 kts | 226° |
| 2026-04-29 23:52 | 22.44059 | 40.33504 | 36830 ft | 469 kts | 217° |
| 2026-04-29 23:52 | 22.41371 | 40.31515 | 35889 ft | 469 kts | 217° |
| 2026-04-29 23:52 | 22.38644 | 40.29568 | 35002 ft | 467 kts | 217° |
| 2026-04-29 23:52 | 22.35925 | 40.27644 | 34004 ft | 467 kts | 217° |
| 2026-04-29 23:53 | 22.33207 | 40.25717 | 32895 ft | 468 kts | 218° |
| 2026-04-29 23:53 | 22.30482 | 40.23786 | 31735 ft | 468 kts | 217° |
| 2026-04-29 23:53 | 22.27781 | 40.21871 | 30586 ft | 468 kts | 217° |
| 2026-04-29 23:53 | 22.25040 | 40.19929 | 29360 ft | 468 kts | 217° |
| 2026-04-29 23:54 | 22.22336 | 40.18013 | 28067 ft | 469 kts | 217° |
| 2026-04-29 23:54 | 22.19619 | 40.16089 | 27061 ft | 465 kts | 217° |
| 2026-04-29 23:54 | 22.16916 | 40.14175 | 25924 ft | 464 kts | 217° |
| 2026-04-29 23:54 | 22.14213 | 40.12257 | 24875 ft | 464 kts | 217° |
| 2026-04-29 23:55 | 22.11528 | 40.10350 | 23928 ft | 462 kts | 217° |
| 2026-04-29 23:55 | 22.08849 | 40.08455 | 23016 ft | 459 kts | 217° |
| 2026-04-29 23:55 | 22.06181 | 40.06571 | 22205 ft | 455 kts | 217° |
| 2026-04-29 23:55 | 22.03585 | 40.04739 | 22065 ft | 436 kts | 217° |
| 2026-04-29 23:56 | 22.01099 | 40.02986 | 21972 ft | 418 kts | 217° |
| 2026-04-29 23:56 | 21.98716 | 40.01306 | 21889 ft | 401 kts | 218° |
| 2026-04-29 23:56 | 21.96427 | 39.99693 | 21808 ft | 385 kts | 218° |
| 2026-04-29 23:56 | 21.94232 | 39.98145 | 21735 ft | 369 kts | 218° |
| 2026-04-29 23:57 | 21.92129 | 39.96664 | 21633 ft | 351 kts | 218° |
| 2026-04-29 23:57 | 21.90152 | 39.95272 | 21295 ft | 339 kts | 218° |
| 2026-04-29 23:57 | 21.88172 | 39.93874 | 20704 ft | 334 kts | 219° |
| 2026-04-29 23:57 | 21.86368 | 39.92388 | 20077 ft | 328 kts | 225° |
| 2026-04-29 23:58 | 21.84703 | 39.90744 | 19511 ft | 321 kts | 228° |
| 2026-04-29 23:58 | 21.83126 | 39.89064 | 18899 ft | 318 kts | 229° |
| 2026-04-29 23:58 | 21.81568 | 39.87389 | 18277 ft | 316 kts | 229° |
| 2026-04-29 23:58 | 21.80001 | 39.85737 | 17683 ft | 313 kts | 228° |
| 2026-04-29 23:59 | 21.78441 | 39.84121 | 17046 ft | 311 kts | 228° |
| 2026-04-29 23:59 | 21.76894 | 39.82536 | 16598 ft | 304 kts | 228° |
| 2026-04-29 23:59 | 21.75372 | 39.80987 | 16030 ft | 300 kts | 227° |
| 2026-04-29 23:59 | 21.73857 | 39.79452 | 15445 ft | 297 kts | 227° |
| 2026-04-30 00:00 | 21.72358 | 39.77938 | 14895 ft | 294 kts | 227° |
| 2026-04-30 00:00 | 21.70875 | 39.76444 | 14341 ft | 290 kts | 226° |
| 2026-04-30 00:00 | 21.69405 | 39.74966 | 13760 ft | 288 kts | 226° |
| 2026-04-30 00:00 | 21.67950 | 39.73504 | 13211 ft | 284 kts | 226° |
| 2026-04-30 00:01 | 21.66556 | 39.72105 | 12725 ft | 279 kts | 226° |
| 2026-04-30 00:01 | 21.65146 | 39.70690 | 12349 ft | 277 kts | 225° |
| 2026-04-30 00:01 | 21.63737 | 39.69278 | 11974 ft | 274 kts | 225° |
| 2026-04-30 00:01 | 21.62365 | 39.67893 | 11599 ft | 273 kts | 225° |
| 2026-04-30 00:02 | 21.60988 | 39.66505 | 11230 ft | 270 kts | 225° |
| 2026-04-30 00:02 | 21.59668 | 39.65177 | 10876 ft | 268 kts | 225° |
| 2026-04-30 00:02 | 21.58312 | 39.63810 | 10518 ft | 266 kts | 225° |
| 2026-04-30 00:02 | 21.56962 | 39.62447 | 10196 ft | 275 kts | 225° |
| 2026-04-30 00:03 | 21.55510 | 39.60986 | 10147 ft | 292 kts | 224° |
| 2026-04-30 00:03 | 21.54111 | 39.59583 | 9938 ft | 288 kts | 224° |
| 2026-04-30 00:03 | 21.52675 | 39.58144 | 9574 ft | 278 kts | 224° |
| 2026-04-30 00:03 | 21.51260 | 39.56729 | 9025 ft | 276 kts | 224° |
| 2026-04-30 00:04 | 21.49860 | 39.55330 | 8553 ft | 271 kts | 224° |
| 2026-04-30 00:04 | 21.48528 | 39.53999 | 8282 ft | 261 kts | 224° |
| 2026-04-30 00:04 | 21.47205 | 39.52677 | 7944 ft | 258 kts | 224° |
| 2026-04-30 00:04 | 21.45895 | 39.51370 | 7612 ft | 256 kts | 224° |
| 2026-04-30 00:05 | 21.44592 | 39.50069 | 7281 ft | 254 kts | 223° |
| 2026-04-30 00:05 | 21.43305 | 39.48783 | 6954 ft | 252 kts | 222° |
| 2026-04-30 00:05 | 21.42028 | 39.47508 | 6630 ft | 250 kts | 221° |
| 2026-04-30 00:05 | 21.40720 | 39.46205 | 6307 ft | 266 kts | 221° |
| 2026-04-30 00:06 | 21.39340 | 39.44829 | 5957 ft | 274 kts | 221° |
| 2026-04-30 00:06 | 21.37944 | 39.43437 | 5592 ft | 273 kts | 221° |
| 2026-04-30 00:06 | 21.36554 | 39.42052 | 5231 ft | 273 kts | 221° |
| 2026-04-30 00:06 | 21.35232 | 39.40596 | 4888 ft | 272 kts | 231° |
| 2026-04-30 00:07 | 21.34266 | 39.38858 | 4549 ft | 271 kts | 242° |
| 2026-04-30 00:07 | 21.33517 | 39.36992 | 4186 ft | 271 kts | 248° |
| 2026-04-30 00:07 | 21.32901 | 39.35159 | 4100 ft | 253 kts | 251° |
| 2026-04-30 00:07 | 21.32333 | 39.33413 | 4008 ft | 252 kts | 252° |
| 2026-04-30 00:08 | 21.32118 | 39.31555 | 3989 ft | 249 kts | 277° |
| 2026-04-30 00:08 | 21.32763 | 39.29885 | 3995 ft | 249 kts | 304° |
| 2026-04-30 00:08 | 21.34118 | 39.28726 | 4009 ft | 253 kts | 329° |
| 2026-04-30 00:08 | 21.35791 | 39.28107 | 4015 ft | 257 kts | 342° |
| 2026-04-30 00:09 | 21.37567 | 39.27568 | 4006 ft | 271 kts | 342° |
| 2026-04-30 00:09 | 21.39376 | 39.26990 | 3998 ft | 269 kts | 344° |
| 2026-04-30 00:09 | 21.41114 | 39.26407 | 3992 ft | 255 kts | 343° |
| 2026-04-30 00:09 | 21.42739 | 39.25812 | 3993 ft | 240 kts | 343° |
| 2026-04-30 00:10 | 21.44304 | 39.25211 | 3994 ft | 236 kts | 342° |
| 2026-04-30 00:10 | 21.45821 | 39.24624 | 4008 ft | 229 kts | 339° |
| 2026-04-30 00:10 | 21.47306 | 39.24041 | 3955 ft | 225 kts | 338° |
| 2026-04-30 00:10 | 21.48737 | 39.23477 | 3648 ft | 212 kts | 337° |
| 2026-04-30 00:11 | 21.50062 | 39.22955 | 3369 ft | 196 kts | 337° |
| 2026-04-30 00:11 | 21.51339 | 39.22452 | 3092 ft | 191 kts | 338° |
| 2026-04-30 00:11 | 21.52578 | 39.21964 | 2840 ft | 189 kts | 339° |
| 2026-04-30 00:11 | 21.53786 | 39.21487 | 2581 ft | 189 kts | 341° |
| 2026-04-30 00:12 | 21.55032 | 39.20997 | 2337 ft | 184 kts | 343° |
| 2026-04-30 00:12 | 21.56195 | 39.20540 | 2144 ft | 175 kts | 343° |
| 2026-04-30 00:12 | 21.57315 | 39.20099 | 1905 ft | 164 kts | 343° |
| 2026-04-30 00:12 | 21.58337 | 39.19696 | 1671 ft | 151 kts | 345° |
| 2026-04-30 00:13 | 21.59306 | 39.19314 | 1511 ft | 146 kts | 346° |
| 2026-04-30 00:13 | 21.60256 | 39.18927 | 1307 ft | 146 kts | 342° |
| 2026-04-30 00:13 | 21.61204 | 39.18510 | 1014 ft | 148 kts | 342° |
| 2026-04-30 00:13 | 21.62157 | 39.18114 | 809 ft | 146 kts | 344° |
| 2026-04-30 00:14 | 21.63118 | 39.17768 | 600 ft | 145 kts | 345° |
| 2026-04-30 00:14 | 21.64074 | 39.17425 | 505 ft | 145 kts | 338° |
| 2026-04-30 00:14 | 21.65025 | 39.17054 | 316 ft | 146 kts | 337° |
| 2026-04-30 00:14 | 21.65957 | 39.16684 | 156 ft | 143 kts | 340° |
| 2026-04-30 00:15 | 21.66866 | 39.16332 | 64 ft | 129 kts | 341° |
| 2026-04-30 00:15 | 21.67607 | 39.16043 | 62 ft | 82 kts | 340° |
| 2026-04-30 00:15 | 21.67935 | 39.15912 | 62 ft | 34 kts | 337° |
| 2026-04-30 00:15 | 21.68097 | 39.15740 | 62 ft | 30 kts | 310° |
| 2026-04-30 00:16 | 21.68201 | 39.15597 | 61 ft | 21 kts | 277° |
| 2026-04-30 00:16 | 21.68167 | 39.15453 | 62 ft | 20 kts | 251° |
| 2026-04-30 00:16 | 21.68125 | 39.15317 | 61 ft | 19 kts | 251° |
| 2026-04-30 00:16 | 21.68082 | 39.15190 | 61 ft | 18 kts | 248° |
| 2026-04-30 00:17 | 21.68035 | 39.15072 | 61 ft | 17 kts | 248° |
| 2026-04-30 00:17 | 21.68019 | 39.15026 | 61 ft | 16 kts | 248° |
| 2026-04-30 00:17 | 21.67971 | 39.14957 | 61 ft | 7 kts | 161° |
| 2026-04-30 00:17 | 21.67925 | 39.14973 | 61 ft | 7 kts | 163° |
| 2026-04-30 00:18 | 21.67883 | 39.14989 | 61 ft | 6 kts | 144° |
| 2026-04-30 00:18 | 21.67879 | 39.15032 | 61 ft | 6 kts | 76° |
| 2026-04-30 00:18 | 21.67891 | 39.15073 | 61 ft | 5 kts | 71° |
| 2026-04-30 00:18 | 21.67892 | 39.15077 | 61 ft | 0 kts | 71° |